createdAt,value
2019-03-24T00:00:29.026Z,4.95
2019-03-24T00:02:57.418Z,4.58
2019-03-24T00:05:27.452Z,4.72
2019-03-24T00:07:56.901Z,4.08
2019-03-24T00:10:25.185Z,3.98
2019-03-24T00:12:53.397Z,4.37
2019-03-24T00:15:26.141Z,4.12
2019-03-24T00:17:51.445Z,5.22
2019-03-24T00:20:19.629Z,4.83
2019-03-24T00:22:47.846Z,4.05
2019-03-24T00:25:16.090Z,5.40
2019-03-24T00:27:44.496Z,4.43
2019-03-24T00:30:12.925Z,4.47
2019-03-24T00:32:42.053Z,4.42
2019-03-24T00:35:10.169Z,5.28
2019-03-24T00:37:38.413Z,4.25
2019-03-24T00:40:06.670Z,3.92
2019-03-24T00:42:35.071Z,4.33
2019-03-24T00:45:04.542Z,4.23
2019-03-24T00:47:32.758Z,4.87
2019-03-24T00:50:01.267Z,4.55
2019-03-24T00:52:29.448Z,4.05
2019-03-24T00:54:57.879Z,4.08
2019-03-24T00:57:26.094Z,4.67
2019-03-24T00:59:54.305Z,4.67
2019-03-24T01:02:22.675Z,4.40
2019-03-24T01:04:50.908Z,3.85
2019-03-24T01:07:19.018Z,4.10
2019-03-24T01:09:47.335Z,5.60
2019-03-24T01:12:15.704Z,5.20
2019-03-24T01:14:43.819Z,3.37
2019-03-24T01:17:11.989Z,4.22
2019-03-24T01:19:40.173Z,3.65
2019-03-24T01:22:08.397Z,4.17
2019-03-24T01:24:36.793Z,4.12
2019-03-24T01:27:05.234Z,4.78
2019-03-24T01:29:33.457Z,3.58
2019-03-24T01:32:01.858Z,4.83
2019-03-24T01:34:29.985Z,4.10
2019-03-24T01:36:58.376Z,3.83
2019-03-24T01:39:26.802Z,3.12
2019-03-24T01:41:54.967Z,3.43
2019-03-24T01:44:23.162Z,4.30
2019-03-24T01:46:52.110Z,3.55
2019-03-24T01:49:20.394Z,4.50
2019-03-24T01:51:48.603Z,3.85
2019-03-24T01:54:16.804Z,3.62
2019-03-24T01:56:45.197Z,3.55
2019-03-24T01:59:13.601Z,4.05
2019-03-24T02:01:41.960Z,4.55
2019-03-24T02:04:10.956Z,4.25
2019-03-24T02:06:39.369Z,3.22
2019-03-24T02:09:07.979Z,5.05
2019-03-24T02:11:36.174Z,3.90
2019-03-24T02:14:04.718Z,3.45
2019-03-24T02:16:33.151Z,4.12
2019-03-24T02:19:01.514Z,5.20
2019-03-24T02:21:29.920Z,4.03
2019-03-24T02:23:58.282Z,4.05
2019-03-24T02:26:26.674Z,4.00
2019-03-24T02:28:55.058Z,3.75
2019-03-24T02:31:23.388Z,4.53
2019-03-24T02:33:51.766Z,3.30
2019-03-24T02:36:19.897Z,4.50
2019-03-24T02:38:48.358Z,3.50
2019-03-24T02:41:16.754Z,4.65
2019-03-24T02:43:45.086Z,3.55
2019-03-24T02:46:23.594Z,4.40
2019-03-24T02:48:43.642Z,4.10
2019-03-24T02:51:12.014Z,4.37
2019-03-24T02:53:40.412Z,4.45
2019-03-24T02:56:08.824Z,4.58
2019-03-24T02:58:37.313Z,4.53
2019-03-24T03:01:05.766Z,5.05
2019-03-24T03:03:34.222Z,4.80
2019-03-24T03:06:02.586Z,5.20
2019-03-24T03:08:30.951Z,4.08
2019-03-24T03:10:59.352Z,4.05
2019-03-24T03:13:27.716Z,4.50
2019-03-24T03:15:56.111Z,4.87
2019-03-24T03:18:24.474Z,3.85
2019-03-24T03:20:52.873Z,4.85
2019-03-24T03:23:21.264Z,4.17
2019-03-24T03:25:49.714Z,4.17
2019-03-24T03:28:18.086Z,5.43
2019-03-24T03:30:46.558Z,4.10
2019-03-24T03:33:14.915Z,3.87
2019-03-24T03:35:43.322Z,4.42
2019-03-24T03:38:11.703Z,4.45
2019-03-24T03:40:41.058Z,3.87
2019-03-24T03:43:09.451Z,3.30
2019-03-24T03:45:39.355Z,4.22
2019-03-24T03:48:07.900Z,3.05
2019-03-24T03:50:36.285Z,4.22
2019-03-24T03:53:04.744Z,4.63
2019-03-24T03:55:33.135Z,4.05
2019-03-24T03:58:01.546Z,3.85
2019-03-24T04:00:33.117Z,3.90
2019-03-24T04:03:02.323Z,4.17
2019-03-24T04:05:30.694Z,4.15
2019-03-24T04:08:00.557Z,2.70
2019-03-24T04:10:28.733Z,3.27
2019-03-24T04:12:57.129Z,3.35
2019-03-24T04:15:25.610Z,4.30
2019-03-24T04:17:53.971Z,4.10
2019-03-24T04:20:22.714Z,4.30
2019-03-24T04:22:51.186Z,3.87
2019-03-24T04:25:19.367Z,4.60
2019-03-24T04:27:47.752Z,3.58
2019-03-24T04:30:16.133Z,4.07
2019-03-24T04:32:44.530Z,4.40
2019-03-24T04:35:12.730Z,4.65
2019-03-24T04:37:40.934Z,2.77
2019-03-24T04:40:09.275Z,3.62
2019-03-24T04:42:37.662Z,3.83
2019-03-24T04:45:06.030Z,4.15
2019-03-24T04:47:34.422Z,2.55
2019-03-24T04:50:02.820Z,3.77
2019-03-24T04:52:31.203Z,3.27
2019-03-24T04:54:59.517Z,3.52
2019-03-24T04:57:27.621Z,3.25
2019-03-24T04:59:55.829Z,4.00
2019-03-24T05:02:24.193Z,2.75
2019-03-24T05:04:52.417Z,3.90
2019-03-24T05:07:20.629Z,3.75
2019-03-24T05:09:49.076Z,4.65
2019-03-24T05:12:17.410Z,5.27
2019-03-24T05:14:45.812Z,3.25
2019-03-24T05:17:15.003Z,3.98
2019-03-24T05:19:43.386Z,3.75
2019-03-24T05:22:11.591Z,4.15
2019-03-24T05:24:39.986Z,3.70
2019-03-24T05:27:08.325Z,4.45
2019-03-24T05:29:36.654Z,2.67
2019-03-24T05:32:04.830Z,3.58
2019-03-24T05:34:33.220Z,4.65
2019-03-24T05:37:01.354Z,4.90
2019-03-24T05:39:29.549Z,4.37
2019-03-24T05:41:57.942Z,4.03
2019-03-24T05:44:26.137Z,5.15
2019-03-24T05:46:54.509Z,4.33
2019-03-24T05:49:22.829Z,5.45
2019-03-24T05:51:51.953Z,4.15
2019-03-24T05:54:20.133Z,4.83
2019-03-24T05:56:48.317Z,3.98
2019-03-24T05:59:16.640Z,4.47
2019-03-24T06:01:45.077Z,3.95
2019-03-24T06:04:13.535Z,4.13
2019-03-24T06:06:41.728Z,3.83
2019-03-24T06:09:10.175Z,3.60
2019-03-24T06:11:38.537Z,4.20
2019-03-24T06:14:06.958Z,5.25
2019-03-24T06:16:35.312Z,3.85
2019-03-24T06:19:03.705Z,4.05
2019-03-24T06:21:32.089Z,4.12
2019-03-24T06:24:00.494Z,4.95
2019-03-24T06:26:28.882Z,4.47
2019-03-24T06:28:57.175Z,4.65
2019-03-24T06:31:26.061Z,4.17
2019-03-24T06:33:54.404Z,3.80
2019-03-24T06:36:22.610Z,5.03
2019-03-24T06:38:50.862Z,3.70
2019-03-24T06:41:19.247Z,4.70
2019-03-24T06:43:47.537Z,4.60
2019-03-24T06:46:15.746Z,4.33
2019-03-24T06:48:44.013Z,5.00
2019-03-24T06:51:12.219Z,3.60
2019-03-24T06:53:40.627Z,5.40
2019-03-24T06:56:09.011Z,4.33
2019-03-24T06:58:37.209Z,3.35
2019-03-24T07:01:05.498Z,4.17
2019-03-24T07:03:33.874Z,2.98
2019-03-24T07:06:02.082Z,4.10
2019-03-24T07:08:30.305Z,4.30
2019-03-24T07:10:58.711Z,3.95
2019-03-24T07:13:26.909Z,3.60
2019-03-24T07:15:55.270Z,4.42
2019-03-24T07:18:23.398Z,3.70
2019-03-24T07:20:51.504Z,3.77
2019-03-24T07:23:19.818Z,4.76
2019-03-24T07:25:48.026Z,4.15
2019-03-24T07:28:16.136Z,4.85
2019-03-24T07:30:44.320Z,3.65
2019-03-24T07:33:12.643Z,4.17
2019-03-24T07:35:40.827Z,3.67
2019-03-24T07:38:09.042Z,4.45
2019-03-24T07:40:37.217Z,4.77
2019-03-24T07:43:05.613Z,4.62
2019-03-24T07:45:33.809Z,5.40
2019-03-24T07:48:02.013Z,4.30
2019-03-24T07:50:30.369Z,3.35
2019-03-24T07:52:58.694Z,4.70
2019-03-24T07:55:26.893Z,5.45
2019-03-24T07:57:55.010Z,4.60
2019-03-24T08:00:27.633Z,5.00
2019-03-24T08:02:56.010Z,3.95
2019-03-24T08:05:24.181Z,4.58
2019-03-24T08:07:52.438Z,4.65
2019-03-24T08:10:20.821Z,3.95
2019-03-24T08:12:49.217Z,3.87
2019-03-24T08:15:17.464Z,3.95
2019-03-24T08:17:45.644Z,3.20
2019-03-24T08:20:13.851Z,3.70
2019-03-24T08:22:42.097Z,3.62
2019-03-24T08:25:10.250Z,4.37
2019-03-24T08:27:40.525Z,3.75
2019-03-24T08:30:08.433Z,4.03
2019-03-24T08:32:36.823Z,2.95
2019-03-24T08:35:05.680Z,3.80
2019-03-24T08:37:33.877Z,3.62
2019-03-24T08:40:02.061Z,4.58
2019-03-24T08:42:30.489Z,3.64
2019-03-24T08:44:58.704Z,3.33
2019-03-24T08:47:26.946Z,4.03
2019-03-24T08:49:55.125Z,3.92
2019-03-24T08:52:23.240Z,2.30
2019-03-24T08:54:51.469Z,3.08
2019-03-24T08:57:19.646Z,2.45
2019-03-24T08:59:48.022Z,3.00
2019-03-24T09:02:16.272Z,3.50
2019-03-24T09:04:44.450Z,3.12
2019-03-24T09:07:12.836Z,3.20
2019-03-24T09:09:41.018Z,2.70
2019-03-24T09:12:09.264Z,2.87
2019-03-24T09:14:37.384Z,3.15
2019-03-24T09:17:05.587Z,4.00
2019-03-24T09:19:33.797Z,2.45
2019-03-24T09:22:01.981Z,2.37
2019-03-24T09:24:30.379Z,2.30
2019-03-24T09:26:58.583Z,2.20
2019-03-24T09:29:27.057Z,3.02
2019-03-24T09:31:55.373Z,2.67
2019-03-24T09:34:23.556Z,2.75
2019-03-24T09:36:51.618Z,2.87
2019-03-24T09:39:19.889Z,3.02
2019-03-24T09:41:48.056Z,3.42
2019-03-24T09:44:16.315Z,2.40
2019-03-24T09:46:44.505Z,2.65
2019-03-24T09:49:12.725Z,2.08
2019-03-24T09:51:41.094Z,2.35
2019-03-24T09:54:09.278Z,1.90
2019-03-24T09:56:37.584Z,1.87
2019-03-24T09:59:05.946Z,1.77
2019-03-24T10:01:34.128Z,2.47
2019-03-24T10:04:02.527Z,2.22
2019-03-24T10:06:30.692Z,2.67
2019-03-24T10:08:58.792Z,2.00
2019-03-24T10:11:26.996Z,2.40
2019-03-24T10:13:55.197Z,2.10
2019-03-24T10:16:23.370Z,2.22
2019-03-24T10:18:51.560Z,1.92
2019-03-24T10:21:19.709Z,1.98
2019-03-24T10:23:47.883Z,2.22
2019-03-24T10:26:16.095Z,2.33
2019-03-24T10:28:44.301Z,1.72
2019-03-24T10:31:12.499Z,1.55
2019-03-24T10:33:40.677Z,1.75
2019-03-24T10:36:08.851Z,1.67
2019-03-24T10:38:37.044Z,1.90
2019-03-24T10:41:05.285Z,2.45
2019-03-24T10:43:33.508Z,1.57
2019-03-24T10:46:01.711Z,1.20
2019-03-24T10:48:33.769Z,1.92
2019-03-24T10:51:00.474Z,1.82
2019-03-24T10:53:28.590Z,1.47
2019-03-24T10:55:56.792Z,1.67
2019-03-24T10:58:24.924Z,2.30
2019-03-24T11:00:53.284Z,2.02
2019-03-24T11:03:21.490Z,2.10
2019-03-24T11:05:49.952Z,1.70
2019-03-24T11:08:18.231Z,1.60
2019-03-24T11:10:46.405Z,1.00
2019-03-24T11:13:14.534Z,1.47
2019-03-24T11:15:42.732Z,1.37
2019-03-24T11:18:11.008Z,1.72
2019-03-24T11:20:39.315Z,1.75
2019-03-24T11:23:07.513Z,1.70
2019-03-24T11:25:35.753Z,1.75
2019-03-24T11:28:03.927Z,2.07
2019-03-24T11:30:32.105Z,1.75
2019-03-24T11:33:00.337Z,1.90
2019-03-24T11:35:28.562Z,1.80
2019-03-24T11:37:56.813Z,1.90
2019-03-24T11:40:25.006Z,2.30
2019-03-24T11:42:53.122Z,1.60
2019-03-24T11:45:21.334Z,1.75
2019-03-24T11:47:49.459Z,1.65
2019-03-24T11:50:17.536Z,1.50
2019-03-24T11:52:45.700Z,2.27
2019-03-24T11:55:13.828Z,1.57
2019-03-24T11:57:41.962Z,1.63
2019-03-24T12:00:11.145Z,1.85
2019-03-24T12:02:39.332Z,1.50
2019-03-24T12:05:07.404Z,1.22
2019-03-24T12:07:35.532Z,1.55
2019-03-24T12:10:05.012Z,1.82
2019-03-24T12:12:33.167Z,1.50
2019-03-24T12:15:01.337Z,2.10
2019-03-24T12:17:29.457Z,1.67
2019-03-24T12:19:58.205Z,1.95
2019-03-24T12:22:26.331Z,1.72
2019-03-24T12:24:54.473Z,1.77
2019-03-24T12:27:22.537Z,1.83
2019-03-24T12:29:50.677Z,1.60
2019-03-24T12:32:18.803Z,2.15
2019-03-24T12:34:46.901Z,1.80
2019-03-24T12:37:15.091Z,1.47
2019-03-24T12:39:43.295Z,1.47
2019-03-24T12:42:11.670Z,1.80
2019-03-24T12:44:39.851Z,2.02
2019-03-24T12:47:07.964Z,1.87
2019-03-24T12:49:36.236Z,2.47
2019-03-24T12:52:04.454Z,1.80
2019-03-24T12:54:32.754Z,1.30
2019-03-24T12:57:00.951Z,1.47
2019-03-24T12:59:29.133Z,1.92
2019-03-24T13:01:57.424Z,1.57
2019-03-24T13:04:25.697Z,1.72
2019-03-24T13:06:53.928Z,1.75
2019-03-24T13:09:21.981Z,1.32
2019-03-24T13:11:50.167Z,1.90
2019-03-24T13:14:18.361Z,1.50
2019-03-24T13:16:46.549Z,2.10
2019-03-24T13:19:14.692Z,1.55
2019-03-24T13:21:42.865Z,1.32
2019-03-24T13:24:11.019Z,2.80
2019-03-24T13:26:39.173Z,2.17
2019-03-24T13:29:07.276Z,1.70
2019-03-24T13:31:35.486Z,2.22
2019-03-24T13:34:03.675Z,1.60
2019-03-24T13:36:31.755Z,2.08
2019-03-24T13:38:59.964Z,2.62
2019-03-24T13:41:28.204Z,1.98
2019-03-24T13:43:56.343Z,1.70
2019-03-24T13:46:24.549Z,1.70
2019-03-24T13:48:52.672Z,1.95
2019-03-24T13:51:20.884Z,1.55
2019-03-24T13:53:49.058Z,2.65
2019-03-24T13:56:17.206Z,1.80
2019-03-24T13:58:45.344Z,2.72
2019-03-24T14:01:13.779Z,1.82
2019-03-24T14:03:41.861Z,2.02
2019-03-24T14:06:09.997Z,1.67
2019-03-24T14:08:38.121Z,1.30
2019-03-24T14:11:06.318Z,1.40
2019-03-24T14:13:34.419Z,1.50
2019-03-24T14:16:02.695Z,1.80
2019-03-24T14:18:30.873Z,1.77
2019-03-24T14:20:58.997Z,1.22
2019-03-24T14:23:27.115Z,1.22
2019-03-24T14:25:56.390Z,1.35
2019-03-24T14:28:24.619Z,1.17
2019-03-24T14:30:52.825Z,1.98
2019-03-24T14:33:21.046Z,1.53
2019-03-24T14:35:49.271Z,0.97
2019-03-24T14:38:17.486Z,1.37
2019-03-24T14:40:45.688Z,1.15
2019-03-24T14:43:13.882Z,1.90
2019-03-24T14:45:42.114Z,1.20
2019-03-24T14:48:10.261Z,1.77
2019-03-24T14:50:38.647Z,1.57
2019-03-24T14:53:06.873Z,1.75
2019-03-24T14:55:35.065Z,1.42
2019-03-24T14:58:03.215Z,1.70
2019-03-24T15:00:35.706Z,1.72
2019-03-24T15:05:31.441Z,1.63
2019-03-24T15:08:00.627Z,2.25
2019-03-24T15:10:28.806Z,2.47
2019-03-24T15:12:56.983Z,2.22
2019-03-24T15:15:25.105Z,1.67
2019-03-24T15:17:53.308Z,1.83
2019-03-24T15:20:21.485Z,2.00
2019-03-24T15:22:49.678Z,2.20
2019-03-24T15:25:17.836Z,2.65
2019-03-24T15:27:46.090Z,2.15
2019-03-24T15:30:14.446Z,2.52
2019-03-24T15:32:42.646Z,2.15
2019-03-24T15:35:11.360Z,1.80
2019-03-24T15:37:39.644Z,2.27
2019-03-24T15:40:07.824Z,1.92
2019-03-24T15:42:35.963Z,2.50
2019-03-24T15:45:06.846Z,2.60
2019-03-24T15:47:34.980Z,1.70
2019-03-24T15:50:04.661Z,1.92
2019-03-24T15:52:32.865Z,2.33
2019-03-24T15:55:00.992Z,1.47
2019-03-24T15:57:29.168Z,1.83
2019-03-24T15:59:57.315Z,1.62
2019-03-24T16:02:25.493Z,2.20
2019-03-24T16:04:53.773Z,2.62
2019-03-24T16:07:21.958Z,2.00
2019-03-24T16:09:50.066Z,2.20
2019-03-24T16:12:18.318Z,2.42
2019-03-24T16:14:46.514Z,2.22
2019-03-24T16:17:14.890Z,1.98
2019-03-24T16:19:43.076Z,2.27
2019-03-24T16:22:11.270Z,1.57
2019-03-24T16:24:39.434Z,2.55
2019-03-24T16:27:07.642Z,2.27
2019-03-24T16:29:35.828Z,2.08
2019-03-24T16:32:03.944Z,1.50
2019-03-24T16:34:32.355Z,2.00
2019-03-24T16:37:00.648Z,2.27
2019-03-24T16:39:29.038Z,2.55
2019-03-24T16:41:57.408Z,1.20
2019-03-24T16:44:25.672Z,2.00
2019-03-24T16:46:53.789Z,1.98
2019-03-24T16:49:21.987Z,1.30
2019-03-24T16:51:50.275Z,1.00
2019-03-24T16:54:18.521Z,1.60
2019-03-24T16:56:46.801Z,1.80
2019-03-24T16:59:15.726Z,2.40
2019-03-24T17:01:43.933Z,1.80
2019-03-24T17:04:12.146Z,2.12
2019-03-24T17:06:40.321Z,2.20
2019-03-24T17:09:08.636Z,2.58
2019-03-24T17:11:36.955Z,2.72
2019-03-24T17:14:06.601Z,2.55
2019-03-24T17:16:34.958Z,1.98
2019-03-24T17:19:03.085Z,2.02
2019-03-24T17:21:31.542Z,2.08
2019-03-24T17:23:59.836Z,2.37
2019-03-24T17:26:28.232Z,2.15
2019-03-24T17:28:56.596Z,2.57
2019-03-24T17:31:25.064Z,2.40
2019-03-24T17:33:53.236Z,2.33
2019-03-24T17:36:21.408Z,2.40
2019-03-24T17:38:49.662Z,2.05
2019-03-24T17:41:17.849Z,1.77
2019-03-24T17:43:45.960Z,2.67
2019-03-24T17:46:14.200Z,1.47
2019-03-24T17:48:42.413Z,2.35
2019-03-24T17:51:10.574Z,2.48
2019-03-24T17:53:39.752Z,2.27
2019-03-24T17:56:08.014Z,2.30
2019-03-24T17:58:36.268Z,2.08
2019-03-24T18:01:04.494Z,2.87
2019-03-24T18:03:33.435Z,2.40
2019-03-24T18:06:01.710Z,2.65
2019-03-24T18:08:29.818Z,2.27
2019-03-24T18:10:58.017Z,2.42
2019-03-24T18:13:26.828Z,2.68
2019-03-24T18:15:55.011Z,3.70
2019-03-24T18:18:24.420Z,2.75
2019-03-24T18:20:53.076Z,3.10
2019-03-24T18:23:21.322Z,3.83
2019-03-24T18:25:49.653Z,3.30
2019-03-24T18:28:19.828Z,2.83
2019-03-24T18:30:48.254Z,2.77
2019-03-24T18:33:16.434Z,2.92
2019-03-24T18:35:44.566Z,2.87
2019-03-24T18:38:12.768Z,2.70
2019-03-24T18:40:40.961Z,3.25
2019-03-24T18:43:09.148Z,2.83
2019-03-24T18:45:37.441Z,3.15
2019-03-24T18:48:06.340Z,2.80
2019-03-24T18:50:34.481Z,2.83
2019-03-24T18:53:09.164Z,2.85
2019-03-24T18:55:37.126Z,2.83
2019-03-24T18:58:05.811Z,3.30
2019-03-24T19:00:34.224Z,3.25
2019-03-24T19:03:02.523Z,2.80
2019-03-24T19:05:30.730Z,2.77
2019-03-24T19:07:59.021Z,2.62
2019-03-24T19:10:27.655Z,2.55
2019-03-24T19:12:56.097Z,2.27
2019-03-24T19:15:29.049Z,2.10
2019-03-24T19:17:57.315Z,2.50
2019-03-24T19:20:25.706Z,2.27
2019-03-24T19:22:56.951Z,2.72
2019-03-24T19:25:25.390Z,2.47
2019-03-24T19:27:53.762Z,2.50
2019-03-24T19:30:23.790Z,2.92
2019-03-24T19:32:53.367Z,3.05
2019-03-24T19:35:21.687Z,2.65
2019-03-24T19:37:49.989Z,2.80
2019-03-24T19:40:22.559Z,2.17
2019-03-24T19:42:51.209Z,2.20
2019-03-24T19:45:19.674Z,2.50
2019-03-24T19:47:49.222Z,2.52
2019-03-24T19:50:17.675Z,2.37
2019-03-24T19:52:46.764Z,2.20
2019-03-24T19:55:16.255Z,2.08
2019-03-24T19:57:44.761Z,2.30
2019-03-24T20:00:13.115Z,2.05
2019-03-24T20:02:41.363Z,2.00
2019-03-24T20:05:09.621Z,2.05
2019-03-24T20:07:47.529Z,2.60
2019-03-24T20:10:11.449Z,2.83
2019-03-24T20:15:07.449Z,2.20
2019-03-24T20:17:35.662Z,3.03
2019-03-24T20:20:05.429Z,2.50
2019-03-24T20:22:35.554Z,2.33
2019-03-24T20:25:06.508Z,2.83
2019-03-24T20:27:34.886Z,2.58
2019-03-24T20:30:05.200Z,3.03
2019-03-24T20:32:34.192Z,2.12
2019-03-24T20:35:02.738Z,2.60
2019-03-24T20:37:31.218Z,2.80
2019-03-24T20:39:59.603Z,2.92
2019-03-24T20:42:30.000Z,3.00
2019-03-24T20:44:58.203Z,2.70
2019-03-24T20:47:26.574Z,2.45
2019-03-24T20:49:54.953Z,3.07
2019-03-24T20:52:23.369Z,4.50
2019-03-24T20:54:51.745Z,3.42
2019-03-24T20:57:20.112Z,3.08
2019-03-24T20:59:48.989Z,2.08
2019-03-24T21:02:17.129Z,2.90
2019-03-24T21:04:45.513Z,2.80
2019-03-24T21:07:13.934Z,3.50
2019-03-24T21:09:42.308Z,3.30
2019-03-24T21:12:11.179Z,2.42
2019-03-24T21:14:39.613Z,2.72
2019-03-24T21:17:08.064Z,2.50
2019-03-24T21:19:39.094Z,1.90
2019-03-24T21:22:07.576Z,3.23
2019-03-24T21:24:36.116Z,2.30
2019-03-24T21:27:06.970Z,2.30
2019-03-24T21:29:34.714Z,2.47
2019-03-24T21:32:03.211Z,3.00
2019-03-24T21:34:32.072Z,1.98
2019-03-24T21:37:00.373Z,2.12
2019-03-24T21:39:28.567Z,1.85
2019-03-24T21:41:56.797Z,1.62
2019-03-24T21:44:24.974Z,2.70
2019-03-24T21:46:53.181Z,2.10
2019-03-24T21:49:21.357Z,1.70
2019-03-24T21:51:49.538Z,2.33
2019-03-24T21:54:17.744Z,2.22
2019-03-24T21:56:47.640Z,1.85
2019-03-24T21:59:15.847Z,2.00
2019-03-24T22:01:45.710Z,1.70
2019-03-24T22:04:13.972Z,1.95
2019-03-24T22:06:42.225Z,1.82
2019-03-24T22:09:10.363Z,1.50
2019-03-24T22:11:39.872Z,2.20
2019-03-24T22:14:09.006Z,2.05
2019-03-24T22:16:37.572Z,1.85
2019-03-24T22:19:05.966Z,1.98
2019-03-24T22:21:34.409Z,1.62
2019-03-24T22:24:02.788Z,1.72
2019-03-24T22:26:31.150Z,1.87
2019-03-24T22:28:59.349Z,2.12
2019-03-24T22:31:27.704Z,1.90
2019-03-24T22:33:58.119Z,1.80
2019-03-24T22:36:26.179Z,1.90
2019-03-24T22:38:56.321Z,2.35
2019-03-24T22:41:24.738Z,1.87
2019-03-24T22:43:53.213Z,2.17
2019-03-24T22:46:21.597Z,2.27
2019-03-24T22:48:49.986Z,2.10
2019-03-24T22:51:18.378Z,2.10
2019-03-24T22:53:47.152Z,2.40
2019-03-24T22:56:15.547Z,2.72
2019-03-24T22:58:43.961Z,2.00
2019-03-24T23:01:12.985Z,2.60
2019-03-24T23:03:41.334Z,2.65
2019-03-24T23:06:09.751Z,2.20
2019-03-24T23:08:38.177Z,2.20
2019-03-24T23:11:06.553Z,1.90
2019-03-24T23:13:34.903Z,2.55
2019-03-24T23:16:03.313Z,2.20
2019-03-24T23:18:31.634Z,2.60
2019-03-24T23:21:00.086Z,2.60
2019-03-24T23:23:28.478Z,2.50
2019-03-24T23:25:57.970Z,2.52
2019-03-24T23:28:26.420Z,2.30
2019-03-24T23:30:54.834Z,2.35
2019-03-24T23:33:24.120Z,2.47
2019-03-24T23:35:52.502Z,2.27
2019-03-24T23:38:20.938Z,2.60
2019-03-24T23:40:49.312Z,2.37
2019-03-24T23:43:17.739Z,2.98
2019-03-24T23:45:46.127Z,2.85
2019-03-24T23:48:14.513Z,2.52
2019-03-24T23:50:42.997Z,2.37
2019-03-24T23:53:11.520Z,2.85
2019-03-24T23:55:39.976Z,3.15
2019-03-24T23:58:08.361Z,3.37
